createdAt,value
2017-08-28T00:02:09.117Z,54.38
2017-08-28T00:04:41.249Z,54.31
2017-08-28T00:07:14.735Z,54.84
2017-08-28T00:09:48.835Z,54.95
2017-08-28T00:12:18.994Z,54.87
2017-08-28T00:14:48.811Z,54.46
2017-08-28T00:17:19.237Z,54.43
2017-08-28T00:19:49.148Z,54.97
2017-08-28T00:22:19.165Z,55.20
2017-08-28T00:24:49.574Z,55.24
2017-08-28T00:27:19.521Z,55.34
2017-08-28T00:29:49.848Z,55.04
2017-08-28T00:32:20.027Z,54.84
2017-08-28T00:34:50.104Z,54.79
2017-08-28T00:37:20.290Z,54.58
2017-08-28T00:39:51.935Z,54.40
2017-08-28T00:42:22.804Z,54.46
2017-08-28T00:44:53.862Z,54.28
2017-08-28T00:47:24.733Z,54.13
2017-08-28T00:49:54.677Z,54.41
2017-08-28T00:52:24.444Z,54.59
2017-08-28T00:54:54.975Z,53.98
2017-08-28T00:57:24.854Z,53.87
2017-08-28T00:59:55.067Z,53.97
2017-08-28T01:02:25.074Z,54.30
2017-08-28T01:04:54.798Z,54.05
2017-08-28T01:07:24.796Z,54.10
2017-08-28T01:09:55.280Z,54.36
2017-08-28T01:12:25.163Z,54.60
2017-08-28T01:14:55.178Z,54.54
2017-08-28T01:17:25.337Z,54.70
2017-08-28T01:19:55.355Z,54.62
2017-08-28T01:22:25.378Z,54.74
2017-08-28T01:24:56.518Z,54.62
2017-08-28T01:27:27.996Z,54.55
2017-08-28T01:29:58.276Z,54.49
2017-08-28T01:32:28.858Z,54.60
2017-08-28T01:34:58.816Z,54.81
2017-08-28T01:37:28.757Z,55.15
2017-08-28T01:39:59.092Z,55.46
2017-08-28T01:42:30.360Z,55.21
2017-08-28T01:45:00.209Z,55.34
2017-08-28T01:47:30.251Z,54.94
2017-08-28T01:50:02.153Z,55.03
2017-08-28T01:52:31.775Z,55.61
2017-08-28T01:55:02.347Z,55.38
2017-08-28T01:57:32.450Z,55.69
2017-08-28T02:00:02.139Z,55.58
2017-08-28T02:02:32.215Z,55.73
2017-08-28T02:05:02.304Z,55.55
2017-08-28T02:07:32.464Z,55.29
2017-08-28T02:10:02.637Z,55.19
2017-08-28T02:12:32.818Z,55.60
2017-08-28T02:15:03.587Z,56.03
2017-08-28T02:17:33.299Z,55.54
2017-08-28T02:20:03.828Z,55.36
2017-08-28T02:22:33.851Z,55.22
2017-08-28T02:25:04.024Z,55.18
2017-08-28T02:27:34.394Z,55.53
2017-08-28T02:30:04.340Z,55.59
2017-08-28T02:32:34.530Z,56.12
2017-08-28T02:35:05.089Z,56.18
2017-08-28T02:37:34.751Z,56.09
2017-08-28T02:40:04.957Z,56.22
2017-08-28T02:42:35.406Z,56.15
2017-08-28T02:45:06.544Z,55.87
2017-08-28T02:47:36.419Z,56.04
2017-08-28T02:50:06.664Z,55.94
2017-08-28T02:52:36.377Z,55.87
2017-08-28T02:55:06.571Z,56.03
2017-08-28T02:57:36.854Z,55.85
2017-08-28T03:00:07.337Z,55.80
2017-08-28T03:02:38.028Z,55.77
2017-08-28T03:05:10.491Z,56.06
2017-08-28T03:07:40.575Z,56.03
2017-08-28T03:10:10.816Z,56.03
2017-08-28T03:12:40.727Z,56.13
2017-08-28T03:15:11.894Z,56.01
2017-08-28T03:17:44.724Z,55.81
2017-08-28T03:20:14.864Z,55.82
2017-08-28T03:22:48.643Z,55.82
2017-08-28T03:25:19.265Z,55.26
2017-08-28T03:27:50.116Z,55.52
2017-08-28T03:30:20.850Z,55.43
2017-08-28T03:32:50.511Z,55.00
2017-08-28T03:35:20.594Z,55.04
2017-08-28T03:37:50.611Z,55.54
2017-08-28T03:40:21.614Z,55.47
2017-08-28T03:42:51.944Z,55.49
2017-08-28T03:45:22.282Z,55.54
2017-08-28T03:47:52.549Z,55.93
2017-08-28T03:50:22.763Z,55.89
2017-08-28T03:52:52.947Z,55.93
2017-08-28T03:55:23.298Z,55.75
2017-08-28T03:57:53.455Z,55.48
2017-08-28T04:00:23.594Z,55.74
2017-08-28T04:02:53.357Z,55.66
2017-08-28T04:05:23.699Z,56.10
2017-08-28T04:07:54.898Z,55.99
2017-08-28T04:10:30.950Z,55.45
2017-08-28T04:13:01.101Z,55.69
2017-08-28T04:15:31.261Z,56.00
2017-08-28T04:18:01.790Z,55.65
2017-08-28T04:20:31.979Z,55.67
2017-08-28T04:23:03.515Z,55.57
2017-08-28T04:25:33.987Z,55.64
2017-08-28T04:28:04.894Z,55.56
2017-08-28T04:30:34.903Z,55.61
2017-08-28T04:33:05.394Z,55.55
2017-08-28T04:35:35.369Z,55.90
2017-08-28T04:38:16.499Z,56.08
2017-08-28T04:40:51.326Z,56.11
2017-08-28T04:43:21.839Z,56.11
2017-08-28T04:45:51.989Z,55.85
2017-08-28T04:48:22.374Z,55.62
2017-08-28T04:50:52.322Z,55.90
2017-08-28T04:53:22.056Z,56.33
2017-08-28T04:55:53.191Z,56.17
2017-08-28T04:58:23.255Z,56.24
2017-08-28T05:00:53.046Z,56.57
2017-08-28T05:03:23.118Z,56.40
2017-08-28T05:05:53.057Z,56.35
2017-08-28T05:08:22.736Z,56.30
2017-08-28T05:10:52.738Z,56.25
2017-08-28T05:13:26.199Z,56.07
2017-08-28T05:15:56.335Z,56.17
2017-08-28T05:18:27.950Z,55.97
2017-08-28T05:20:58.312Z,55.92
2017-08-28T05:23:28.078Z,55.78
2017-08-28T05:25:58.500Z,55.83
2017-08-28T05:28:31.440Z,56.16
2017-08-28T05:31:02.015Z,56.31
2017-08-28T05:33:31.960Z,56.85
2017-08-28T05:36:05.949Z,57.54
2017-08-28T05:38:35.800Z,57.62
2017-08-28T05:41:07.218Z,56.04
2017-08-28T05:43:37.075Z,53.73
2017-08-28T05:46:07.471Z,52.72
2017-08-28T05:48:37.549Z,51.95
2017-08-28T05:51:08.282Z,51.74
2017-08-28T05:53:38.049Z,50.95
2017-08-28T05:56:08.038Z,49.89
2017-08-28T05:58:37.670Z,49.39
2017-08-28T06:01:07.852Z,49.09
2017-08-28T06:03:38.638Z,48.45
2017-08-28T06:06:08.298Z,48.02
2017-08-28T06:08:38.315Z,47.52
2017-08-28T06:11:09.023Z,47.08
2017-08-28T06:13:39.050Z,47.25
2017-08-28T06:16:08.741Z,47.41
2017-08-28T06:18:39.696Z,46.76
2017-08-28T06:21:09.631Z,46.61
2017-08-28T06:23:40.017Z,46.01
2017-08-28T06:26:10.127Z,45.30
2017-08-28T06:28:40.036Z,45.01
2017-08-28T06:31:10.169Z,44.83
2017-08-28T06:33:41.279Z,48.04
2017-08-28T06:36:11.503Z,47.71
2017-08-28T06:38:41.316Z,48.78
2017-08-28T06:41:12.555Z,48.27
2017-08-28T06:43:44.635Z,48.38
2017-08-28T06:46:14.300Z,48.50
2017-08-28T06:48:46.280Z,47.51
2017-08-28T06:51:16.860Z,47.24
2017-08-28T06:53:50.838Z,46.79
2017-08-28T06:56:22.491Z,46.37
2017-08-28T06:58:52.481Z,45.67
2017-08-28T07:01:23.200Z,45.33
2017-08-28T07:03:53.360Z,45.23
2017-08-28T07:06:28.318Z,45.45
2017-08-28T07:08:58.544Z,45.44
2017-08-28T07:11:28.234Z,45.23
2017-08-28T07:13:58.118Z,45.72
2017-08-28T07:16:31.325Z,45.19
2017-08-28T07:19:04.292Z,44.95
2017-08-28T07:21:33.974Z,45.08
2017-08-28T07:24:03.751Z,44.76
2017-08-28T07:26:35.206Z,44.71
2017-08-28T07:29:05.851Z,44.74
2017-08-28T07:31:38.100Z,44.69
2017-08-28T07:34:13.971Z,44.61
2017-08-28T07:36:46.614Z,44.56
2017-08-28T07:39:17.391Z,44.83
2017-08-28T07:41:48.665Z,44.82
2017-08-28T07:44:18.625Z,44.90
2017-08-28T07:46:50.010Z,44.85
2017-08-28T07:49:21.480Z,44.77
2017-08-28T07:51:51.147Z,45.51
2017-08-28T07:54:21.027Z,44.99
2017-08-28T07:56:51.096Z,44.98
2017-08-28T07:59:21.937Z,45.67
2017-08-28T08:01:52.163Z,46.33
2017-08-28T08:04:22.432Z,46.32
2017-08-28T08:06:52.570Z,46.43
2017-08-28T08:09:23.608Z,46.32
2017-08-28T08:11:53.842Z,46.40
2017-08-28T08:14:24.754Z,46.38
2017-08-28T08:16:56.401Z,46.27
2017-08-28T08:19:28.052Z,46.00
2017-08-28T08:21:57.793Z,45.93
2017-08-28T08:24:27.609Z,45.85
2017-08-28T08:27:00.161Z,45.76
2017-08-28T08:29:30.038Z,45.75
2017-08-28T08:31:59.778Z,45.75
2017-08-28T08:34:29.869Z,45.71
2017-08-28T08:36:59.791Z,45.62
2017-08-28T08:39:29.547Z,45.54
2017-08-28T08:41:59.993Z,45.66
2017-08-28T08:44:29.867Z,45.65
2017-08-28T08:47:00.409Z,45.65
2017-08-28T08:49:31.589Z,45.66
2017-08-28T08:52:02.043Z,45.57
2017-08-28T08:54:32.540Z,45.54
2017-08-28T08:57:02.793Z,45.50
2017-08-28T08:59:33.606Z,45.03
2017-08-28T09:02:03.802Z,45.22
2017-08-28T09:04:33.994Z,45.45
2017-08-28T09:07:04.221Z,45.42
2017-08-28T09:09:34.746Z,45.53
2017-08-28T09:12:05.319Z,45.56
2017-08-28T09:14:35.792Z,45.55
2017-08-28T09:17:06.003Z,45.62
2017-08-28T09:19:39.752Z,45.62
2017-08-28T09:22:09.517Z,45.68
2017-08-28T09:24:39.631Z,45.60
2017-08-28T09:27:09.314Z,45.50
2017-08-28T09:29:39.203Z,45.57
2017-08-28T09:32:09.446Z,45.56
2017-08-28T09:34:39.956Z,45.57
2017-08-28T09:37:10.016Z,45.24
2017-08-28T09:39:40.292Z,45.09
2017-08-28T09:42:09.950Z,45.35
2017-08-28T09:44:39.880Z,45.41
2017-08-28T09:47:10.018Z,45.44
2017-08-28T09:49:39.825Z,45.30
2017-08-28T09:52:09.419Z,45.19
2017-08-28T09:54:41.437Z,45.22
2017-08-28T09:57:11.292Z,45.35
2017-08-28T09:59:41.336Z,44.66
2017-08-28T10:02:11.293Z,45.04
2017-08-28T10:04:41.067Z,45.16
2017-08-28T10:07:11.399Z,45.15
2017-08-28T10:09:41.927Z,45.09
2017-08-28T10:12:12.989Z,44.99
2017-08-28T10:14:46.131Z,44.82
2017-08-28T10:17:16.391Z,44.79
2017-08-28T10:19:50.802Z,44.66
2017-08-28T10:22:25.013Z,44.56
2017-08-28T10:25:05.398Z,44.57
2017-08-28T10:27:41.587Z,43.88
2017-08-28T10:30:19.562Z,43.75
2017-08-28T10:32:50.009Z,44.02
2017-08-28T10:35:22.547Z,44.11
2017-08-28T10:37:53.345Z,43.39
2017-08-28T10:40:23.464Z,43.23
2017-08-28T10:42:53.442Z,42.60
2017-08-28T10:45:23.373Z,43.06
2017-08-28T10:47:53.109Z,43.93
2017-08-28T10:50:23.272Z,43.88
2017-08-28T10:52:56.968Z,42.98
2017-08-28T10:55:27.005Z,43.45
2017-08-28T10:57:56.654Z,43.66
2017-08-28T11:00:26.992Z,43.44
2017-08-28T11:02:56.893Z,43.29
2017-08-28T11:05:27.633Z,42.88
2017-08-28T11:07:57.821Z,42.97
2017-08-28T11:10:28.323Z,43.13
2017-08-28T11:12:58.092Z,43.39
2017-08-28T11:15:27.972Z,43.36
2017-08-28T11:17:57.920Z,43.27
2017-08-28T11:20:28.637Z,42.85
2017-08-28T11:22:58.267Z,43.08
2017-08-28T11:25:28.250Z,43.00
2017-08-28T11:27:57.907Z,42.21
2017-08-28T11:30:27.812Z,42.22
2017-08-28T11:32:57.848Z,42.37
2017-08-28T11:35:27.669Z,42.83
2017-08-28T11:37:57.371Z,42.76
2017-08-28T11:40:28.722Z,42.80
2017-08-28T11:42:59.345Z,42.56
2017-08-28T11:45:29.154Z,42.54
2017-08-28T11:47:59.113Z,42.91
2017-08-28T11:50:29.004Z,42.96
2017-08-28T11:52:58.701Z,41.86
2017-08-28T11:55:35.446Z,42.40
2017-08-28T11:58:05.496Z,42.62
2017-08-28T12:00:35.628Z,42.69
2017-08-28T12:03:05.275Z,42.37
2017-08-28T12:05:36.266Z,41.88
2017-08-28T12:08:06.901Z,41.50
2017-08-28T12:10:36.895Z,41.41
2017-08-28T12:13:06.674Z,41.59
2017-08-28T12:15:38.116Z,41.73
2017-08-28T12:18:07.798Z,41.85
2017-08-28T12:20:38.024Z,41.93
2017-08-28T12:23:08.242Z,41.89
2017-08-28T12:25:38.014Z,41.95
2017-08-28T12:28:07.676Z,42.08
2017-08-28T12:30:37.640Z,42.25
2017-08-28T12:33:07.512Z,42.24
2017-08-28T12:35:37.594Z,41.94
2017-08-28T12:38:07.509Z,41.93
2017-08-28T12:40:37.952Z,41.94
2017-08-28T12:43:07.590Z,41.78
2017-08-28T12:45:37.865Z,41.93
2017-08-28T12:48:07.578Z,41.60
2017-08-28T12:50:37.303Z,41.35
2017-08-28T12:53:07.219Z,40.96
2017-08-28T12:55:37.020Z,40.74
2017-08-28T12:58:06.795Z,40.91
2017-08-28T13:00:38.191Z,41.01
2017-08-28T13:03:08.008Z,41.18
2017-08-28T13:05:38.110Z,41.27
2017-08-28T13:08:07.936Z,41.39
2017-08-28T13:10:37.903Z,41.45
2017-08-28T13:13:08.288Z,41.56
2017-08-28T13:15:38.343Z,41.46
2017-08-28T13:18:08.229Z,41.60
2017-08-28T13:20:38.341Z,41.66
2017-08-28T13:23:08.190Z,41.75
2017-08-28T13:25:37.924Z,41.83
2017-08-28T13:30:47.633Z,41.49
2017-08-28T13:33:17.506Z,41.50
2017-08-28T13:35:47.227Z,41.38
2017-08-28T13:38:17.035Z,41.50
2017-08-28T13:40:49.158Z,41.43
2017-08-28T13:43:19.016Z,41.42
2017-08-28T13:45:49.725Z,41.42
2017-08-28T13:48:19.817Z,41.52
2017-08-28T13:50:49.431Z,41.50
2017-08-28T13:53:19.099Z,41.34
2017-08-28T13:55:49.301Z,41.19
2017-08-28T13:58:20.543Z,41.26
2017-08-28T14:00:51.648Z,41.04
2017-08-28T14:03:23.837Z,40.65
2017-08-28T14:05:56.703Z,40.75
2017-08-28T14:08:27.193Z,41.01
2017-08-28T14:10:57.458Z,41.02
2017-08-28T14:13:27.763Z,40.74
2017-08-28T14:15:57.939Z,40.59
2017-08-28T14:18:28.013Z,40.75
2017-08-28T14:20:58.521Z,40.75
2017-08-28T14:23:28.626Z,40.79
2017-08-28T14:25:59.615Z,40.70
2017-08-28T14:28:33.319Z,40.61
2017-08-28T14:31:03.819Z,40.33
2017-08-28T14:33:33.961Z,40.41
2017-08-28T14:36:04.907Z,40.57
2017-08-28T14:38:37.534Z,40.37
2017-08-28T14:41:07.459Z,40.37
2017-08-28T14:43:37.750Z,40.43
2017-08-28T14:46:07.525Z,40.43
2017-08-28T14:48:37.220Z,40.17
2017-08-28T14:51:07.307Z,40.14
2017-08-28T14:53:36.949Z,39.97
2017-08-28T14:56:07.041Z,40.25
2017-08-28T14:58:37.137Z,39.79
2017-08-28T15:01:07.198Z,39.99
2017-08-28T15:03:36.860Z,39.96
2017-08-28T15:06:07.180Z,40.26
2017-08-28T15:08:37.131Z,40.15
2017-08-28T15:11:07.186Z,40.08
2017-08-28T15:13:37.104Z,39.99
2017-08-28T15:16:07.211Z,39.53
2017-08-28T15:18:37.323Z,39.73
2017-08-28T15:21:07.449Z,39.91
2017-08-28T15:23:37.257Z,39.62
2017-08-28T15:26:07.112Z,39.72
2017-08-28T15:28:37.137Z,39.93
2017-08-28T15:31:07.051Z,39.81
2017-08-28T15:33:36.962Z,39.51
2017-08-28T15:36:07.291Z,39.66
2017-08-28T15:38:37.110Z,39.93
2017-08-28T15:41:07.123Z,39.99
2017-08-28T15:43:37.276Z,40.00
2017-08-28T15:46:07.278Z,40.00
2017-08-28T15:48:37.203Z,40.04
2017-08-28T15:51:07.579Z,39.75
2017-08-28T15:53:37.336Z,39.48
2017-08-28T15:56:07.331Z,39.70
2017-08-28T15:58:37.361Z,39.66
2017-08-28T16:01:07.308Z,39.41
2017-08-28T16:03:37.139Z,39.43
2017-08-28T16:06:07.357Z,39.59
2017-08-28T16:08:37.028Z,39.30
2017-08-28T16:11:06.712Z,39.41
2017-08-28T16:13:39.123Z,39.67
2017-08-28T16:16:10.678Z,39.42
2017-08-28T16:18:41.673Z,39.49
2017-08-28T16:21:11.705Z,39.66
2017-08-28T16:23:41.368Z,39.78
2017-08-28T16:26:11.010Z,39.57
2017-08-28T16:28:41.527Z,39.63
2017-08-28T16:31:11.247Z,39.37
2017-08-28T16:33:40.974Z,39.83
2017-08-28T16:36:11.127Z,39.99
2017-08-28T16:38:40.946Z,39.57
2017-08-28T16:41:12.434Z,39.42
2017-08-28T16:43:45.337Z,39.82
2017-08-28T16:46:15.180Z,40.14
2017-08-28T16:48:47.334Z,40.43
2017-08-28T16:51:19.169Z,40.39
2017-08-28T16:53:48.880Z,40.31
2017-08-28T16:56:18.674Z,40.11
2017-08-28T16:58:48.935Z,40.92
2017-08-28T17:01:18.754Z,40.95
2017-08-28T17:03:48.473Z,41.61
2017-08-28T17:06:18.888Z,41.45
2017-08-28T17:08:48.875Z,41.40
2017-08-28T17:11:19.150Z,41.32
2017-08-28T17:13:49.047Z,41.38
2017-08-28T17:16:19.143Z,41.23
2017-08-28T17:18:49.054Z,41.14
2017-08-28T17:21:19.615Z,41.24
2017-08-28T17:23:53.696Z,40.87
2017-08-28T17:26:24.132Z,41.16
2017-08-28T17:28:54.311Z,41.04
2017-08-28T17:31:24.709Z,41.12
2017-08-28T17:33:54.971Z,40.79
2017-08-28T17:36:25.366Z,40.84
2017-08-28T17:38:55.413Z,40.77
2017-08-28T17:41:25.490Z,40.86
2017-08-28T17:43:57.597Z,40.63
2017-08-28T17:46:27.775Z,40.56
2017-08-28T17:48:57.916Z,40.74
2017-08-28T17:51:28.091Z,40.39
2017-08-28T17:53:58.569Z,40.26
2017-08-28T17:56:30.093Z,40.37
2017-08-28T17:59:00.151Z,40.26
2017-08-28T18:01:30.395Z,40.35
2017-08-28T18:04:01.899Z,39.57
2017-08-28T18:06:33.481Z,39.83
2017-08-28T18:09:03.759Z,38.89
2017-08-28T18:11:34.864Z,39.29
2017-08-28T18:14:05.628Z,39.58
2017-08-28T18:16:36.653Z,39.54
2017-08-28T18:19:07.097Z,39.29
2017-08-28T18:21:37.289Z,39.27
2017-08-28T18:24:07.916Z,39.56
2017-08-28T18:26:38.930Z,39.54
2017-08-28T18:29:10.262Z,40.17
2017-08-28T18:31:40.843Z,40.28
2017-08-28T18:34:10.687Z,40.85
2017-08-28T18:36:41.114Z,43.36
2017-08-28T18:39:11.233Z,41.09
2017-08-28T18:41:41.219Z,40.05
2017-08-28T18:44:11.686Z,38.94
2017-08-28T18:46:44.081Z,38.49
2017-08-28T18:49:15.460Z,38.51
2017-08-28T18:51:50.158Z,38.41
2017-08-28T18:54:22.982Z,38.49
2017-08-28T18:56:53.313Z,38.49
2017-08-28T18:59:24.480Z,38.55
2017-08-28T19:02:00.203Z,38.65
2017-08-28T19:04:31.157Z,38.64
2017-08-28T19:07:01.768Z,38.79
2017-08-28T19:09:31.838Z,38.84
2017-08-28T19:12:04.691Z,39.00
2017-08-28T19:14:35.841Z,39.07
2017-08-28T19:17:06.869Z,39.15
2017-08-28T19:19:36.963Z,39.23
2017-08-28T19:22:08.079Z,39.24
2017-08-28T19:24:38.811Z,39.15
2017-08-28T19:27:09.736Z,38.88
2017-08-28T19:29:40.353Z,38.69
2017-08-28T19:32:10.355Z,38.81
2017-08-28T19:34:44.531Z,38.80
2017-08-28T19:37:15.029Z,38.79
2017-08-28T19:39:45.222Z,38.79
2017-08-28T19:42:15.977Z,38.75
2017-08-28T19:44:49.615Z,38.67
2017-08-28T19:47:22.912Z,38.59
2017-08-28T19:49:56.959Z,38.55
2017-08-28T19:52:26.938Z,38.49
2017-08-28T19:54:57.565Z,38.50
2017-08-28T19:57:27.603Z,38.66
2017-08-28T19:59:57.490Z,38.83
2017-08-28T20:02:32.175Z,38.93
2017-08-28T20:05:02.834Z,38.91
2017-08-28T20:07:32.881Z,38.91
2017-08-28T20:10:03.923Z,38.88
2017-08-28T20:12:35.042Z,38.71
2017-08-28T20:15:04.953Z,38.12
2017-08-28T20:17:35.390Z,38.09
2017-08-28T20:20:06.263Z,37.90
2017-08-28T20:22:38.139Z,37.89
2017-08-28T20:25:07.993Z,38.16
2017-08-28T20:27:41.511Z,38.38
2017-08-28T20:30:13.011Z,38.25
2017-08-28T20:32:44.055Z,38.40
2017-08-28T20:35:26.396Z,38.62
2017-08-28T20:37:57.157Z,38.50
2017-08-28T20:40:27.064Z,38.69
2017-08-28T20:42:57.012Z,38.99
2017-08-28T20:45:28.854Z,39.22
2017-08-28T20:47:59.671Z,39.34
2017-08-28T20:50:29.700Z,39.45
2017-08-28T20:53:00.932Z,39.48
2017-08-28T20:55:31.215Z,39.69
2017-08-28T20:58:01.410Z,39.72
2017-08-28T21:00:31.751Z,40.02
2017-08-28T21:03:02.876Z,40.28
2017-08-28T21:05:32.757Z,40.37
2017-08-28T21:08:03.441Z,40.51
2017-08-28T21:10:33.146Z,40.69
2017-08-28T21:13:03.660Z,40.79
2017-08-28T21:15:34.612Z,40.88
2017-08-28T21:18:04.589Z,40.96
2017-08-28T21:20:34.223Z,40.93
2017-08-28T21:23:04.261Z,41.05
2017-08-28T21:25:33.994Z,41.11
2017-08-28T21:28:04.455Z,41.11
2017-08-28T21:30:35.571Z,41.20
2017-08-28T21:33:05.758Z,41.11
2017-08-28T21:35:35.708Z,41.36
2017-08-28T21:38:05.828Z,41.47
2017-08-28T21:40:37.919Z,41.59
2017-08-28T21:43:07.919Z,41.71
2017-08-28T21:45:38.027Z,41.65
2017-08-28T21:48:08.015Z,41.85
2017-08-28T21:50:38.627Z,41.83
2017-08-28T21:53:08.650Z,41.91
2017-08-28T21:55:38.411Z,41.84
2017-08-28T21:58:10.009Z,41.83
2017-08-28T22:00:40.569Z,41.89
2017-08-28T22:03:10.689Z,41.74
2017-08-28T22:05:40.721Z,41.80
2017-08-28T22:08:10.439Z,41.85
2017-08-28T22:10:40.579Z,41.86
2017-08-28T22:13:10.439Z,41.83
2017-08-28T22:15:40.240Z,41.95
2017-08-28T22:18:10.414Z,41.93
2017-08-28T22:20:40.490Z,41.99
2017-08-28T22:23:10.348Z,42.09
2017-08-28T22:25:45.084Z,42.03
2017-08-28T22:28:15.586Z,42.17
2017-08-28T22:30:48.047Z,42.10
2017-08-28T22:33:18.088Z,42.40
2017-08-28T22:35:48.451Z,42.64
2017-08-28T22:38:18.483Z,42.76
2017-08-28T22:40:49.067Z,42.60
2017-08-28T22:43:19.327Z,42.68
2017-08-28T22:45:49.918Z,42.60
2017-08-28T22:48:20.354Z,42.74
2017-08-28T22:50:51.047Z,42.63
2017-08-28T22:53:21.267Z,42.69
2017-08-28T22:55:51.118Z,42.79
2017-08-28T22:58:20.954Z,42.74
2017-08-28T23:00:51.318Z,42.71
2017-08-28T23:03:21.113Z,42.87
2017-08-28T23:05:50.881Z,42.80
2017-08-28T23:08:20.874Z,42.69
2017-08-28T23:10:50.942Z,42.66
2017-08-28T23:13:20.773Z,42.74
2017-08-28T23:15:50.831Z,42.75
2017-08-28T23:18:21.724Z,42.69
2017-08-28T23:20:51.626Z,42.71
2017-08-28T23:23:21.373Z,42.73
2017-08-28T23:25:51.234Z,42.69
2017-08-28T23:28:20.916Z,42.78
2017-08-28T23:30:51.432Z,42.70
2017-08-28T23:33:21.254Z,42.67
2017-08-28T23:35:51.527Z,42.66
2017-08-28T23:38:22.059Z,42.70
2017-08-28T23:40:52.177Z,42.67
2017-08-28T23:43:22.354Z,42.58
2017-08-28T23:45:52.362Z,42.71
2017-08-28T23:48:23.002Z,42.70
2017-08-28T23:50:52.657Z,42.70
2017-08-28T23:53:23.419Z,42.79
2017-08-28T23:55:53.613Z,42.83
2017-08-28T23:58:23.327Z,42.85
